Time;durP1;ratioP1;P1;durP2;ratioP2;P2;SDS_P1;SDS_P2;PMS_P1;PMS_P2;Temp;Humidity;BMP_temperature;BMP_pressure;BME280_temperature;BME280_humidity;BME280_pressure;Samples;Min_cycle;Max_cycle;Signal;HPM_P1;HPM_P2
2023/09/25 00:01:08;;;;;;;2.35;1.95;;;12.30;99.90;;;;;;4916526;29;20060;-52
2023/09/25 00:03:34;;;;;;;2.25;2.05;;;12.30;99.90;;;;;;4916295;29;20028;-48
2023/09/25 00:06:00;;;;;;;2.60;2.40;;;12.30;99.90;;;;;;4916638;29;20540;-47
2023/09/25 00:08:25;;;;;;;4.78;2.38;;;12.30;99.90;;;;;;4916021;29;20040;-49
2023/09/25 00:10:50;;;;;;;4.40;2.15;;;12.30;99.90;;;;;;4915955;29;20106;-50
2023/09/25 00:13:16;;;;;;;3.35;2.58;;;12.30;99.90;;;;;;4915492;29;20071;-48
2023/09/25 00:15:44;;;;;;;1.75;1.65;;;12.30;99.90;;;;;;4915645;29;20144;-52
2023/09/25 00:18:09;;;;;;;2.40;1.95;;;12.20;99.90;;;;;;4915800;29;20036;-50
2023/09/25 00:20:35;;;;;;;3.88;2.70;;;12.20;99.90;;;;;;4915637;29;20090;-48
2023/09/25 00:23:00;;;;;;;2.00;1.90;;;12.20;99.90;;;;;;4915285;29;20091;-51
2023/09/25 00:25:28;;;;;;;4.60;3.00;;;12.20;99.90;;;;;;4915487;29;20032;-49
2023/09/25 00:27:54;;;;;;;2.63;2.25;;;12.10;99.90;;;;;;4915103;29;20027;-53
2023/09/25 00:30:19;;;;;;;3.05;2.45;;;12.10;99.90;;;;;;4915019;29;20400;-47
2023/09/25 00:32:45;;;;;;;3.15;2.45;;;12.00;99.90;;;;;;4915220;29;20076;-49
2023/09/25 00:35:10;;;;;;;2.42;2.00;;;12.00;99.90;;;;;;4915069;29;20024;-46
2023/09/25 00:37:37;;;;;;;3.10;2.28;;;12.00;99.90;;;;;;4915709;29;20348;-52
2023/09/25 00:40:13;;;;;;;5.15;2.33;;;12.10;99.90;;;;;;4915413;29;20601;-51
2023/09/25 00:42:40;;;;;;;;;;;12.00;99.90;;;;;;4915710;29;20072;-51
2023/09/25 00:45:06;;;;;;;5.13;2.55;;;12.00;99.90;;;;;;4915145;29;19911;-52
2023/09/25 00:47:32;;;;;;;6.15;2.35;;;12.00;99.90;;;;;;4915526;29;20037;-51
2023/09/25 00:49:57;;;;;;;4.88;2.50;;;12.00;99.90;;;;;;4915212;29;20020;-52
2023/09/25 00:52:24;;;;;;;5.78;2.58;;;12.00;99.90;;;;;;4915204;29;20034;-46
2023/09/25 00:54:51;;;;;;;6.70;2.60;;;12.00;99.90;;;;;;4914947;29;20451;-48
2023/09/25 00:57:17;;;;;;;2.80;2.30;;;12.00;99.90;;;;;;4915179;29;20567;-50
2023/09/25 00:59:43;;;;;;;3.13;2.20;;;12.00;99.90;;;;;;4915219;29;20051;-51
2023/09/25 01:02:10;;;;;;;2.70;2.05;;;11.90;99.90;;;;;;4915200;29;20087;-53
2023/09/25 01:04:36;;;;;;;3.05;2.15;;;11.90;99.90;;;;;;4914909;29;20039;-48
2023/09/25 01:07:03;;;;;;;5.28;2.47;;;11.80;99.90;;;;;;4956373;23;20054;-47
2023/09/25 01:09:28;;;;;;;5.57;2.53;;;11.80;99.90;;;;;;4955928;28;20051;-48
2023/09/25 01:11:54;;;;;;;3.10;2.28;;;11.70;99.90;;;;;;4955898;28;20071;-46
2023/09/25 01:14:19;;;;;;;54.13;31.73;;;11.80;99.90;;;;;;4955100;28;20041;-48
2023/09/25 01:16:45;;;;;;;3.97;3.08;;;11.80;99.90;;;;;;4946220;28;20023;-46
2023/09/25 01:19:10;;;;;;;3.50;2.38;;;11.80;99.90;;;;;;4935352;29;20024;-53
2023/09/25 01:21:36;;;;;;;1.92;1.83;;;11.70;99.90;;;;;;4936233;29;20028;-49
2023/09/25 01:24:02;;;;;;;2.47;2.13;;;11.70;99.90;;;;;;4936129;29;20372;-50
2023/09/25 01:26:28;;;;;;;3.22;2.45;;;11.70;99.90;;;;;;4935558;29;20031;-50
2023/09/25 01:28:54;;;;;;;3.17;2.60;;;11.70;99.90;;;;;;4936525;29;20488;-51
2023/09/25 01:31:19;;;;;;;2.30;2.20;;;11.60;99.90;;;;;;4935951;29;20115;-48
2023/09/25 01:33:45;;;;;;;7.68;2.28;;;11.60;99.90;;;;;;4933706;29;20024;-47
2023/09/25 01:36:11;;;;;;;3.55;2.42;;;11.60;99.90;;;;;;4934966;29;20024;-48
2023/09/25 01:38:37;;;;;;;3.72;2.72;;;11.60;99.90;;;;;;4933307;29;20055;-47
2023/09/25 01:41:03;;;;;;;2.40;2.28;;;11.50;99.90;;;;;;4934673;29;20060;-53
2023/09/25 01:43:29;;;;;;;3.80;2.65;;;11.60;99.90;;;;;;4937479;29;20102;-48
2023/09/25 01:45:54;;;;;;;2.70;2.40;;;11.60;99.90;;;;;;4937159;29;20073;-50
2023/09/25 01:48:20;;;;;;;3.53;2.50;;;11.60;99.90;;;;;;4938403;29;20039;-49
2023/09/25 01:50:45;;;;;;;6.97;2.33;;;11.60;99.90;;;;;;4939099;29;20369;-46
2023/09/25 01:53:11;;;;;;;6.47;2.33;;;11.60;99.90;;;;;;4938795;29;20028;-48
2023/09/25 01:55:36;;;;;;;2.63;2.40;;;11.50;99.90;;;;;;4938879;29;20038;-46
2023/09/25 01:58:03;;;;;;;3.53;2.53;;;11.50;99.90;;;;;;4938611;29;20051;-47
2023/09/25 02:00:28;;;;;;;5.90;3.03;;;11.50;99.90;;;;;;4938969;29;20106;-46
2023/09/25 02:02:54;;;;;;;3.72;2.30;;;11.50;99.90;;;;;;4938713;29;20067;-48
2023/09/25 02:05:20;;;;;;;2.90;2.40;;;11.50;99.90;;;;;;4937068;29;20130;-46
2023/09/25 02:07:45;;;;;;;3.50;2.47;;;11.50;99.90;;;;;;4938009;29;20047;-51
2023/09/25 02:10:11;;;;;;;2.60;2.40;;;11.50;99.90;;;;;;4936783;29;20034;-45
2023/09/25 02:12:37;;;;;;;5.15;2.47;;;11.40;99.90;;;;;;4938284;29;20028;-46
2023/09/25 02:15:05;;;;;;;2.65;2.45;;;11.50;99.90;;;;;;4938085;29;20447;-46
2023/09/25 02:17:31;;;;;;;4.88;2.92;;;11.40;99.90;;;;;;4938117;29;20027;-46
2023/09/25 02:20:16;;;;;;;2.95;2.75;;;11.40;99.90;;;;;;4937391;29;20107;-46
2023/09/25 02:22:41;;;;;;;5.28;2.50;;;11.30;99.90;;;;;;4938324;29;20103;-46
2023/09/25 02:25:08;;;;;;;3.45;2.65;;;11.30;99.90;;;;;;4938388;29;20507;-47
2023/09/25 02:27:34;;;;;;;2.95;2.22;;;11.30;99.90;;;;;;4937631;29;20052;-48
2023/09/25 02:30:00;;;;;;;2.80;2.60;;;11.20;99.90;;;;;;4938145;29;20090;-50
2023/09/25 02:32:25;;;;;;;2.78;2.58;;;11.20;99.90;;;;;;4938402;29;20071;-42
2023/09/25 02:34:51;;;;;;;6.38;2.88;;;11.20;99.90;;;;;;4936897;29;20095;-46
2023/09/25 02:37:17;;;;;;;3.55;2.78;;;11.20;99.90;;;;;;4938144;29;20034;-50
2023/09/25 02:39:42;;;;;;;2.97;2.72;;;11.10;99.90;;;;;;4938145;29;20051;-47
2023/09/25 02:42:09;;;;;;;3.00;2.30;;;11.10;99.90;;;;;;4938356;29;20031;-49
2023/09/25 02:44:34;;;;;;;3.47;2.45;;;11.10;99.90;;;;;;4937910;29;20114;-50
2023/09/25 02:47:00;;;;;;;2.53;2.33;;;11.10;99.90;;;;;;4938389;29;20035;-46
2023/09/25 02:49:25;;;;;;;3.22;2.92;;;11.00;99.90;;;;;;4936646;29;20072;-49
2023/09/25 02:51:51;;;;;;;6.68;2.75;;;11.00;99.90;;;;;;4937954;29;20403;-48
2023/09/25 02:54:16;;;;;;;5.72;2.65;;;11.00;99.90;;;;;;4936663;29;20479;-48
2023/09/25 02:56:42;;;;;;;4.28;3.15;;;11.00;99.90;;;;;;4937754;29;20514;-48
2023/09/25 02:59:07;;;;;;;7.35;2.33;;;11.00;99.90;;;;;;4937744;29;20030;-52
2023/09/25 03:01:34;;;;;;;2.65;2.45;;;11.00;99.90;;;;;;4937894;29;20111;-51
2023/09/25 03:03:59;;;;;;;2.92;2.70;;;11.00;99.90;;;;;;4937444;29;20031;-48
2023/09/25 03:06:25;;;;;;;3.25;2.58;;;11.00;99.90;;;;;;4937724;29;20563;-50
2023/09/25 03:08:50;;;;;;;4.70;2.50;;;11.00;99.90;;;;;;4937323;29;20055;-47
2023/09/25 03:11:16;;;;;;;4.82;3.47;;;11.00;99.90;;;;;;4937216;29;20032;-51
2023/09/25 03:13:42;;;;;;;5.15;3.53;;;11.00;99.90;;;;;;4937000;29;20036;-49
2023/09/25 03:16:15;;;;;;;5.32;2.33;;;11.00;99.90;;;;;;4937782;29;20027;-47
2023/09/25 03:18:41;;;;;;;2.67;2.47;;;11.00;99.90;;;;;;4937506;29;20024;-45
2023/09/25 03:21:14;;;;;;;2.97;2.15;;;11.00;99.90;;;;;;4937004;29;20031;-48
2023/09/25 03:23:41;;;;;;;5.60;2.50;;;11.00;99.90;;;;;;4936742;29;20127;-51
2023/09/25 03:26:13;;;;;;;2.78;2.58;;;10.90;99.90;;;;;;4936632;29;20031;-46
2023/09/25 03:28:39;;;;;;;3.70;2.80;;;11.00;99.90;;;;;;4936466;29;20023;-48
2023/09/25 03:31:05;;;;;;;2.92;2.45;;;11.00;99.90;;;;;;4936516;29;20039;-46
2023/09/25 03:33:30;;;;;;;2.90;2.70;;;10.90;99.90;;;;;;4936012;29;20111;-51
2023/09/25 03:35:56;;;;;;;3.17;2.78;;;10.90;99.90;;;;;;4936409;29;20032;-50
2023/09/25 03:38:21;;;;;;;2.55;2.33;;;10.90;99.90;;;;;;4936404;29;20027;-48
2023/09/25 03:40:47;;;;;;;3.60;2.80;;;10.70;99.90;;;;;;4936228;29;20024;-48
2023/09/25 03:43:12;;;;;;;4.10;2.85;;;10.70;99.90;;;;;;4936047;29;20024;-50
2023/09/25 03:45:38;;;;;;;2.70;2.45;;;10.70;99.90;;;;;;4936427;29;20034;-50
2023/09/25 03:48:04;;;;;;;4.43;2.70;;;10.60;99.90;;;;;;4936285;29;20071;-49
2023/09/25 03:50:29;;;;;;;5.32;2.85;;;10.60;99.90;;;;;;4936374;29;20070;-46
2023/09/25 03:52:58;;;;;;;3.90;3.10;;;10.40;99.90;;;;;;4936186;29;20028;-48
2023/09/25 03:55:24;;;;;;;4.32;2.88;;;10.40;99.90;;;;;;4936354;29;20387;-49
2023/09/25 03:57:49;;;;;;;5.90;2.97;;;10.40;99.90;;;;;;4936469;29;20031;-49
2023/09/25 04:00:16;;;;;;;4.35;2.85;;;10.40;99.90;;;;;;4936649;29;20070;-49
2023/09/25 04:02:42;;;;;;;4.47;2.88;;;10.30;99.90;;;;;;4936495;29;20031;-48
2023/09/25 04:05:08;;;;;;;4.55;3.00;;;10.30;99.90;;;;;;4934955;29;20032;-54
2023/09/25 04:07:34;;;;;;;3.45;2.58;;;10.30;99.90;;;;;;4936326;29;20126;-51
2023/09/25 04:10:02;;;;;;;2.80;2.60;;;10.30;99.90;;;;;;4936597;29;20094;-54
2023/09/25 04:12:27;;;;;;;4.57;3.08;;;10.20;99.90;;;;;;4936859;29;20219;-52
2023/09/25 04:14:53;;;;;;;3.92;2.92;;;10.20;99.90;;;;;;4935450;29;20023;-52
2023/09/25 04:17:20;;;;;;;2.65;2.45;;;10.20;99.90;;;;;;4937659;29;20044;-46
2023/09/25 04:19:49;;;;;;;3.95;3.60;;;10.10;99.90;;;;;;4937466;29;20026;-49
2023/09/25 04:22:14;;;;;;;5.30;3.00;;;10.10;99.90;;;;;;4936762;29;20106;-47
2023/09/25 04:24:40;;;;;;;4.28;2.70;;;10.00;99.90;;;;;;4936631;29;20065;-50
2023/09/25 04:27:06;;;;;;;3.45;2.88;;;9.90;99.90;;;;;;4936769;29;20070;-46
2023/09/25 04:29:31;;;;;;;4.20;3.72;;;9.90;99.90;;;;;;4936199;29;20078;-46
2023/09/25 04:31:57;;;;;;;7.35;3.72;;;9.80;99.90;;;;;;4936595;29;20024;-47
2023/09/25 04:34:23;;;;;;;3.33;3.00;;;9.90;99.90;;;;;;4936570;29;20040;-46
2023/09/25 04:36:49;;;;;;;4.47;4.07;;;9.90;99.90;;;;;;4936979;29;20035;-47
2023/09/25 04:39:16;;;;;;;3.88;3.53;;;9.90;99.90;;;;;;4936982;29;20023;-50
2023/09/25 04:41:45;;;;;;;3.60;3.30;;;9.80;99.90;;;;;;4936309;29;20024;-49
2023/09/25 04:44:10;;;;;;;5.47;3.40;;;9.80;99.90;;;;;;4935531;29;20028;-49
2023/09/25 04:46:37;;;;;;;4.95;3.95;;;9.80;99.90;;;;;;4935792;29;20443;-49
2023/09/25 04:49:04;;;;;;;7.28;3.40;;;9.80;99.90;;;;;;4934311;29;20050;-49
2023/09/25 04:51:30;;;;;;;3.95;3.67;;;9.60;99.90;;;;;;4935882;29;20098;-47
2023/09/25 04:53:55;;;;;;;4.20;3.08;;;9.60;99.90;;;;;;4934186;29;20080;-51
2023/09/25 04:56:21;;;;;;;4.15;3.50;;;9.50;99.90;;;;;;4936017;29;20079;-52
2023/09/25 04:58:47;;;;;;;4.22;3.08;;;9.50;99.90;;;;;;4935692;29;20032;-52
2023/09/25 05:01:13;;;;;;;3.63;3.33;;;9.50;99.90;;;;;;4935815;29;20024;-50
2023/09/25 05:03:40;;;;;;;3.90;3.50;;;9.50;99.90;;;;;;4935638;29;20036;-49
2023/09/25 05:06:11;;;;;;;4.15;3.75;;;9.50;99.90;;;;;;4935960;29;20028;-50
2023/09/25 05:08:39;;;;;;;5.20;3.75;;;9.60;99.90;;;;;;4936289;29;20487;-47
2023/09/25 05:11:08;;;;;;;5.45;3.55;;;9.60;99.90;;;;;;4935932;29;20028;-47
2023/09/25 05:13:33;;;;;;;4.65;4.25;;;9.60;99.90;;;;;;4935058;29;20440;-47
2023/09/25 05:16:01;;;;;;;3.72;3.42;;;9.60;99.90;;;;;;4934989;29;20032;-47
2023/09/25 05:18:26;;;;;;;3.75;3.30;;;9.60;99.90;;;;;;4937424;29;20031;-48
2023/09/25 05:20:53;;;;;;;5.18;3.72;;;9.60;99.90;;;;;;4939027;29;20031;-49
2023/09/25 05:23:20;;;;;;;6.28;4.18;;;9.60;99.90;;;;;;4938492;29;20448;-48
2023/09/25 05:25:46;;;;;;;4.50;3.92;;;9.60;99.90;;;;;;4937265;29;20114;-48
2023/09/25 05:28:12;;;;;;;6.50;3.67;;;9.50;99.90;;;;;;4936797;29;20127;-47
2023/09/25 05:30:37;;;;;;;4.03;3.45;;;9.50;99.90;;;;;;4937025;29;20096;-47
2023/09/25 05:33:03;;;;;;;6.15;3.58;;;9.40;99.90;;;;;;4936825;29;20024;-48
2023/09/25 05:35:30;;;;;;;4.18;3.38;;;9.40;99.90;;;;;;4937892;29;20024;-48
2023/09/25 05:37:55;;;;;;;4.18;3.72;;;9.50;99.90;;;;;;4937927;29;20035;-49
2023/09/25 05:40:21;;;;;;;3.95;3.38;;;9.50;99.90;;;;;;4938004;29;20027;-52
2023/09/25 05:42:48;;;;;;;3.53;3.17;;;9.60;99.90;;;;;;4938197;29;20028;-52
2023/09/25 05:45:15;;;;;;;4.38;3.97;;;9.60;99.90;;;;;;4937922;29;20032;-52
2023/09/25 05:47:41;;;;;;;4.07;3.67;;;9.70;99.90;;;;;;4937734;29;20035;-51
2023/09/25 05:50:08;;;;;;;4.20;3.35;;;9.80;99.90;;;;;;4937679;29;20024;-52
2023/09/25 05:52:34;;;;;;;3.72;3.42;;;;;;;;;;4937705;29;20024;-53
2023/09/25 05:55:01;;;;;;;3.85;3.55;;;;;;;;;;4937846;29;20106;-48
2023/09/25 05:57:27;;;;;;;4.32;2.92;;;;;;;;;;4937881;29;20027;-49
2023/09/25 05:59:53;;;;;;;4.18;3.70;;;;;;;;;;4937788;29;20035;-47
2023/09/25 06:02:19;;;;;;;4.25;3.00;;;;;;;;;;4936206;29;20028;-49
2023/09/25 06:04:46;;;;;;;3.88;3.15;;;;;;;;;;4935968;29;20102;-48
2023/09/25 06:07:13;;;;;;;3.78;3.30;;;;;;;;;;4937292;29;20032;-52
2023/09/25 06:09:39;;;;;;;3.75;3.10;;;;;;;;;;4937468;29;20028;-48
2023/09/25 06:12:05;;;;;;;7.78;3.03;;;;;;;;;;4937545;29;20039;-51
2023/09/25 06:14:31;;;;;;;4.35;2.80;;;;;;;;;;4936972;29;20030;-49
2023/09/25 06:16:59;;;;;;;3.60;3.25;;;;;;;;;;4937485;29;20054;-49
2023/09/25 06:19:25;;;;;;;3.55;3.25;;;;;;;;;;4937797;29;20024;-53
2023/09/25 06:21:51;;;;;;;3.42;3.13;;;;;;;;;;4937259;29;20035;-49
2023/09/25 06:24:17;;;;;;;4.93;3.08;;;;;;;;;;4936152;29;20070;-54
2023/09/25 06:26:46;;;;;;;3.55;2.97;;;;;;;;;;4936131;29;20110;-48
2023/09/25 06:29:13;;;;;;;3.72;3.30;;;;;;;;;;4935861;29;20039;-52
2023/09/25 06:31:39;;;;;;;4.78;2.70;;;;;;;;;;4937224;29;20031;-49
2023/09/25 06:34:08;;;;;;;3.28;2.97;;;;;;;;;;4936650;29;20032;-52
2023/09/25 06:36:37;;;;;;;4.20;3.45;;;;;;;;;;4937001;29;20103;-51
2023/09/25 06:39:09;;;;;;;4.65;3.00;;;;;;;;;;4937169;29;20027;-52
2023/09/25 06:41:36;;;;;;;6.47;2.80;;;;;;;;;;4937049;29;20066;-51
2023/09/25 06:44:04;;;;;;;4.28;2.65;;;;;;;;;;4936569;29;20024;-51
2023/09/25 06:46:30;;;;;;;4.53;2.50;;;;;;;;;;4935412;29;20028;-49
2023/09/25 06:48:56;;;;;;;3.00;2.80;;;;;;;;;;4936715;29;20024;-51
2023/09/25 06:51:22;;;;;;;5.97;2.70;;;;;;;;;;4936558;29;20444;-48
2023/09/25 06:53:48;;;;;;;3.65;2.10;;;;;;;;;;4936243;29;20483;-48
2023/09/25 06:56:14;;;;;;;2.42;1.90;;;14.20;99.90;;;;;;4936536;29;20083;-48
2023/09/25 06:58:39;;;;;;;3.35;2.10;;;14.50;99.90;;;;;;4936857;29;20488;-52
2023/09/25 07:01:06;;;;;;;2.38;1.85;;;15.30;99.90;;;;;;4936406;29;20071;-49
2023/09/25 07:03:31;;;;;;;3.67;2.42;;;16.00;99.90;;;;;;4936213;29;20032;-50
2023/09/25 07:05:57;;;;;;;2.05;1.95;;;16.50;99.90;;;;;;4936103;29;20035;-49
2023/09/25 07:08:23;;;;;;;1.67;1.58;;;16.80;99.90;;;;;;4972788;23;20063;-49
2023/09/25 07:10:49;;;;;;;5.20;1.90;;;17.30;99.90;;;;;;4955408;28;20021;-50
2023/09/25 07:13:15;;;;;;;3.72;1.65;;;17.80;99.90;;;;;;4954932;29;20025;-52
2023/09/25 07:15:41;;;;;;;4.25;1.80;;;18.00;99.90;;;;;;4955039;29;20098;-51
2023/09/25 07:18:07;;;;;;;5.03;1.95;;;18.20;99.90;;;;;;4939879;29;20152;-51
2023/09/25 07:20:32;;;;;;;3.17;1.85;;;18.40;99.90;;;;;;4935837;29;20079;-53
2023/09/25 07:22:58;;;;;;;6.82;2.08;;;18.60;99.90;;;;;;4935668;29;20032;-50
2023/09/25 07:25:23;;;;;;;1.55;1.45;;;19.00;99.90;;;;;;4934105;29;20055;-51
2023/09/25 07:27:49;;;;;;;2.45;1.45;;;19.40;99.90;;;;;;4934769;29;20031;-52
2023/09/25 07:30:14;;;;;;;1.85;1.73;;;19.60;99.90;;;;;;4935346;29;20036;-51
2023/09/25 07:32:42;;;;;;;3.10;1.70;;;19.40;99.90;;;;;;4935070;29;20048;-51
2023/09/25 07:35:09;;;;;;;1.90;1.65;;;19.10;99.90;;;;;;4933938;29;20106;-52
2023/09/25 07:37:36;;;;;;;3.25;1.67;;;19.20;99.90;;;;;;4934924;29;20380;-52
2023/09/25 07:40:08;;;;;;;4.72;1.60;;;19.60;99.90;;;;;;4934410;29;20059;-50
2023/09/25 07:42:34;;;;;;;2.45;1.50;;;19.40;99.90;;;;;;4934984;29;20026;-51
2023/09/25 07:44:59;;;;;;;2.30;1.60;;;19.10;99.90;;;;;;4934848;29;20020;-52
2023/09/25 07:47:29;;;;;;;1.85;1.65;;;18.30;99.90;;;;;;4935071;29;20023;-49
2023/09/25 07:49:54;;;;;;;5.00;1.95;;;17.60;99.90;;;;;;4935050;29;20035;-51
2023/09/25 07:52:20;;;;;;;4.43;2.13;;;16.90;99.90;;;;;;4935162;29;20028;-53
2023/09/25 07:54:50;;;;;;;3.38;2.03;;;16.40;99.90;;;;;;4934701;29;20026;-51
2023/09/25 07:57:19;;;;;;;3.05;2.00;;;16.10;99.90;;;;;;4934968;29;20111;-49
2023/09/25 07:59:45;;;;;;;2.72;2.10;;;15.80;99.90;;;;;;4933538;29;20087;-52
2023/09/25 08:02:20;;;;;;;5.30;2.45;;;15.70;99.90;;;;;;4935026;29;20023;-51
2023/09/25 08:04:47;;;;;;;2.60;2.40;;;15.50;99.90;;;;;;4934607;29;20475;-52
2023/09/25 08:07:13;;;;;;;3.40;2.20;;;15.30;99.90;;;;;;4933313;29;20043;-49
2023/09/25 08:09:38;;;;;;;3.28;1.92;;;15.20;99.90;;;;;;4934752;29;20118;-49
2023/09/25 08:12:05;;;;;;;4.03;2.22;;;15.00;99.90;;;;;;4934935;29;20110;-52
2023/09/25 08:14:32;;;;;;;3.42;2.00;;;14.90;99.90;;;;;;4934395;29;20028;-52
2023/09/25 08:16:58;;;;;;;3.95;1.85;;;14.80;99.90;;;;;;4934583;29;20019;-51
2023/09/25 08:19:24;;;;;;;4.57;3.00;;;14.90;99.90;;;;;;4935297;29;20035;-49
2023/09/25 08:21:53;;;;;;;2.17;1.98;;;14.90;99.90;;;;;;4935277;29;20361;-49
2023/09/25 08:24:19;;;;;;;2.15;1.90;;;14.90;99.90;;;;;;4934417;29;20038;-51
2023/09/25 08:26:47;;;;;;;5.05;2.05;;;15.00;99.90;;;;;;4933326;29;20051;-52
2023/09/25 08:29:15;;;;;;;3.45;2.13;;;15.00;99.90;;;;;;4934282;29;20372;-53
2023/09/25 08:31:44;;;;;;;3.50;2.30;;;15.10;99.90;;;;;;4934495;29;20560;-52
2023/09/25 08:34:11;;;;;;;2.50;2.30;;;15.20;99.90;;;;;;4934146;29;20064;-50
2023/09/25 08:36:37;;;;;;;2.90;2.00;;;15.20;99.90;;;;;;4934470;29;20032;-48
2023/09/25 08:39:04;;;;;;;3.10;2.80;;;15.20;99.90;;;;;;4934623;29;20459;-52
2023/09/25 08:41:32;;;;;;;5.68;2.05;;;15.30;99.90;;;;;;4934283;29;20400;-53
2023/09/25 08:43:58;;;;;;;2.38;1.95;;;15.40;99.90;;;;;;4934043;29;20115;-51
2023/09/25 08:46:25;;;;;;;2.88;1.98;;;15.50;99.90;;;;;;4934203;29;20041;-49
2023/09/25 08:48:52;;;;;;;2.17;1.98;;;15.30;99.90;;;;;;4934227;29;20069;-51
2023/09/25 08:51:20;;;;;;;2.17;1.83;;;15.50;99.90;;;;;;4934093;29;20436;-51
2023/09/25 08:53:45;;;;;;;2.35;2.15;;;15.50;99.90;;;;;;4933816;29;20024;-50
2023/09/25 08:56:14;;;;;;;2.60;1.90;;;16.20;99.90;;;;;;4934442;29;20070;-51
2023/09/25 08:58:45;;;;;;;2.80;1.90;;;17.20;99.90;;;;;;4934445;29;20115;-53
2023/09/25 09:01:11;;;;;;;2.17;1.80;;;18.20;99.90;;;;;;4933140;29;20074;-51
2023/09/25 09:03:36;;;;;;;5.40;1.58;;;19.20;99.90;;;;;;4934006;29;20446;-51
2023/09/25 09:06:03;;;;;;;1.50;1.40;;;19.90;99.90;;;;;;4934328;29;20039;-56
2023/09/25 09:08:29;;;;;;;2.25;1.63;;;20.30;99.90;;;;;;4933924;29;20032;-50
2023/09/25 09:10:55;;;;;;;5.63;1.70;;;21.00;99.90;;;;;;4934149;29;20400;-50
2023/09/25 09:13:23;;;;;;;2.17;1.60;;;21.90;99.90;;;;;;4933815;29;20035;-51
2023/09/25 09:15:49;;;;;;;1.35;1.33;;;22.10;99.10;;;;;;4934103;29;20522;-54
2023/09/25 09:18:23;;;;;;;3.63;1.25;;;22.60;98.70;;;;;;4933939;29;20103;-53
2023/09/25 09:20:49;;;;;;;2.30;1.58;;;22.90;97.60;;;;;;4934146;29;20114;-52
2023/09/25 09:23:15;;;;;;;1.70;1.60;;;23.10;97.50;;;;;;4933723;29;20039;-52
2023/09/25 09:25:48;;;;;;;2.63;1.63;;;23.50;96.80;;;;;;4932697;29;20028;-54
2023/09/25 09:28:14;;;;;;;1.30;1.20;;;23.40;97.00;;;;;;4933617;29;20032;-51
2023/09/25 09:30:41;;;;;;;5.18;2.40;;;23.10;96.90;;;;;;4934092;29;20035;-53
2023/09/25 09:33:10;;;;;;;6.07;2.25;;;23.00;97.50;;;;;;4933852;29;20079;-52
2023/09/25 09:35:36;;;;;;;3.08;1.40;;;23.30;97.10;;;;;;4933997;29;20036;-51
2023/09/25 09:38:04;;;;;;;2.22;1.67;;;23.20;96.40;;;;;;4933536;29;20574;-55
2023/09/25 09:40:30;;;;;;;2.35;2.05;;;23.00;97.10;;;;;;4933747;29;20039;-54
2023/09/25 09:42:56;;;;;;;2.95;2.17;;;22.40;97.00;;;;;;4933671;29;20042;-50
2023/09/25 09:45:22;;;;;;;4.43;1.80;;;22.00;97.80;;;;;;4933732;29;20031;-54
2023/09/25 09:47:52;;;;;;;1.35;1.25;;;21.90;98.00;;;;;;4933722;29;20107;-54
2023/09/25 09:50:22;;;;;;;2.22;1.85;;;21.90;97.80;;;;;;4933911;29;20096;-54
2023/09/25 09:52:49;;;;;;;1.77;1.55;;;21.90;97.90;;;;;;4933733;29;20062;-54
2023/09/25 09:55:15;;;;;;;8.63;2.60;;;21.60;98.20;;;;;;4933717;29;20050;-56
2023/09/25 09:57:41;;;;;;;6.07;2.13;;;21.50;98.30;;;;;;4932076;29;20042;-52
2023/09/25 10:00:08;;;;;;;1.50;1.27;;;21.40;98.40;;;;;;4933461;29;20106;-55
2023/09/25 10:02:35;;;;;;;6.57;2.78;;;21.50;98.30;;;;;;4933535;29;20050;-54
2023/09/25 10:05:02;;;;;;;3.75;1.70;;;21.40;98.30;;;;;;4936952;29;20036;-50
2023/09/25 10:07:29;;;;;;;3.85;2.00;;;21.70;98.50;;;;;;4936950;29;20031;-52
2023/09/25 10:10:04;;;;;;;4.43;2.00;;;21.90;98.20;;;;;;4937010;29;20456;-54
2023/09/25 10:12:37;;;;;;;2.22;1.67;;;21.80;98.10;;;;;;4936978;29;20542;-56
2023/09/25 10:15:08;;;;;;;2.85;1.90;;;22.10;97.70;;;;;;4937472;29;20019;-53
2023/09/25 10:17:41;;;;;;;1.60;1.40;;;22.20;97.40;;;;;;4937025;29;20051;-50
2023/09/25 10:20:34;;;;;;;2.83;1.77;;;22.00;97.10;;;;;;4937113;29;20031;-52
2023/09/25 10:23:06;;;;;;;1.63;1.30;;;21.90;97.20;;;;;;4936943;29;20028;-49
2023/09/25 10:25:48;;;;;;;1.70;1.60;;;21.90;97.90;;;;;;4937170;29;20051;-51
2023/09/25 10:28:21;;;;;;;5.70;2.22;;;21.90;97.20;;;;;;4936627;29;20091;-54
2023/09/25 10:30:48;;;;;;;1.70;1.58;;;21.70;97.50;;;;;;4937069;29;20032;-51
2023/09/25 10:33:20;;;;;;;2.67;1.73;;;21.70;97.60;;;;;;4936666;29;20023;-54
2023/09/25 10:35:49;;;;;;;1.98;1.80;;;21.70;98.10;;;;;;4937208;29;20028;-53
2023/09/25 10:38:19;;;;;;;3.05;1.80;;;21.60;97.80;;;;;;4936952;29;20106;-50
2023/09/25 10:40:46;;;;;;;3.95;1.75;;;21.50;98.30;;;;;;4936986;29;20054;-54
2023/09/25 10:43:14;;;;;;;2.83;1.67;;;21.60;98.90;;;;;;4937099;29;20083;-54
2023/09/25 10:45:39;;;;;;;5.53;4.45;;;21.50;97.40;;;;;;4936796;29;20467;-53
2023/09/25 10:48:06;;;;;;;27.52;19.25;;;21.40;97.00;;;;;;4936482;29;20067;-52
2023/09/25 10:50:32;;;;;;;3.20;1.70;;;21.20;98.50;;;;;;4936590;29;20440;-56
2023/09/25 10:52:58;;;;;;;4.63;1.70;;;21.00;98.60;;;;;;4936351;29;20047;-54
2023/09/25 10:55:23;;;;;;;2.90;1.25;;;21.10;98.40;;;;;;4936311;29;20028;-55
2023/09/25 10:57:49;;;;;;;1.55;1.45;;;21.10;98.80;;;;;;4936361;29;20480;-51
2023/09/25 11:00:18;;;;;;;4.78;1.63;;;21.20;98.30;;;;;;4935879;29;20035;-53
2023/09/25 11:02:44;;;;;;;2.63;2.35;;;21.10;98.20;;;;;;4936266;29;20027;-51
2023/09/25 11:05:13;;;;;;;1.75;1.65;;;21.20;98.20;;;;;;4936347;29;20030;-51
2023/09/25 11:07:39;;;;;;;2.22;1.80;;;21.20;99.00;;;;;;4935865;29;20044;-51
2023/09/25 11:10:07;;;;;;;4.68;1.73;;;21.20;98.60;;;;;;4936102;29;20039;-55
2023/09/25 11:12:33;;;;;;;1.80;1.67;;;21.00;99.20;;;;;;4933843;29;20114;-52
2023/09/25 11:14:59;;;;;;;1.77;1.60;;;21.00;97.70;;;;;;4935161;29;20106;-55
2023/09/25 11:17:26;;;;;;;1.98;1.77;;;20.90;97.40;;;;;;4935990;29;20024;-53
2023/09/25 11:19:52;;;;;;;3.10;1.55;;;20.80;97.60;;;;;;4934956;29;20114;-50
2023/09/25 11:22:24;;;;;;;4.30;1.85;;;20.70;98.00;;;;;;4934209;29;20034;-53
2023/09/25 11:24:54;;;;;;;2.28;1.70;;;20.70;98.70;;;;;;4932138;29;20036;-51
2023/09/25 11:27:20;;;;;;;3.47;1.25;;;20.60;99.10;;;;;;4935095;29;20411;-51
2023/09/25 11:29:49;;;;;;;3.70;2.17;;;20.60;99.90;;;;;;4934747;29;20127;-54
2023/09/25 11:32:16;;;;;;;2.60;1.70;;;20.60;99.50;;;;;;4935543;29;20391;-51
2023/09/25 11:34:43;;;;;;;2.50;1.73;;;20.50;99.40;;;;;;4935190;29;20030;-51
2023/09/25 11:37:20;;;;;;;5.28;1.92;;;20.50;98.20;;;;;;4935219;29;20091;-51
2023/09/25 11:39:45;;;;;;;2.17;1.45;;;20.50;98.70;;;;;;4935342;29;20027;-51
2023/09/25 11:42:11;;;;;;;3.28;1.73;;;20.40;99.10;;;;;;4935003;29;20031;-52
2023/09/25 11:44:36;;;;;;;2.55;1.70;;;20.30;99.10;;;;;;4935036;29;20051;-53
2023/09/25 11:47:03;;;;;;;5.47;1.95;;;20.30;99.40;;;;;;4935247;29;20456;-53
2023/09/25 11:49:29;;;;;;;3.25;1.75;;;20.30;99.60;;;;;;4935254;29;20032;-52
2023/09/25 11:51:54;;;;;;;2.17;1.70;;;20.30;99.00;;;;;;4935082;29;20518;-53
2023/09/25 11:54:20;;;;;;;3.05;1.90;;;20.30;98.50;;;;;;4934977;29;20503;-53
2023/09/25 11:56:45;;;;;;;2.08;1.60;;;20.30;98.80;;;;;;4935354;29;20566;-55
2023/09/25 11:59:15;;;;;;;2.30;1.30;;;20.20;99.10;;;;;;4935431;29;20103;-51
2023/09/25 12:01:41;;;;;;;2.88;1.90;;;20.20;99.40;;;;;;4935059;29;20563;-54
2023/09/25 12:04:08;;;;;;;2.03;1.70;;;20.20;99.10;;;;;;4934641;29;20074;-52
2023/09/25 12:06:34;;;;;;;2.65;1.40;;;20.20;98.90;;;;;;4934391;29;20032;-49
2023/09/25 12:09:10;;;;;;;3.05;1.85;;;20.20;99.80;;;;;;4935162;29;20110;-51
2023/09/25 12:11:41;;;;;;;2.63;1.70;;;20.30;99.60;;;;;;4934791;29;20086;-51
2023/09/25 12:14:08;;;;;;;2.70;2.13;;;20.30;99.50;;;;;;4934995;29;20028;-51
2023/09/25 12:16:34;;;;;;;5.93;5.07;;;20.30;99.30;;;;;;4934829;29;20073;-54
2023/09/25 12:18:59;;;;;;;8.45;5.75;;;20.20;99.40;;;;;;4934755;29;20108;-51
2023/09/25 12:21:25;;;;;;;44.28;30.60;;;20.20;99.60;;;;;;4933501;29;20391;-54
2023/09/25 12:23:50;;;;;;;5.75;3.80;;;20.20;99.80;;;;;;4934838;29;20038;-51
2023/09/25 12:26:16;;;;;;;2.33;1.73;;;20.20;99.60;;;;;;4934916;29;20047;-51
2023/09/25 12:28:42;;;;;;;2.67;1.77;;;20.20;99.90;;;;;;4934390;29;20502;-53
2023/09/25 12:31:07;;;;;;;5.75;1.90;;;20.30;99.90;;;;;;4934592;29;20103;-55
2023/09/25 12:33:33;;;;;;;7.40;1.90;;;20.40;99.90;;;;;;4933988;29;20078;-51
2023/09/25 12:35:59;;;;;;;4.03;2.17;;;20.40;99.70;;;;;;4934338;29;20493;-53
2023/09/25 12:38:25;;;;;;;3.90;1.60;;;20.40;99.90;;;;;;4934450;29;20031;-53
2023/09/25 12:40:51;;;;;;;4.22;1.70;;;20.50;99.90;;;;;;4934559;29;20111;-52
2023/09/25 12:43:16;;;;;;;2.40;1.65;;;20.60;99.80;;;;;;4933028;29;20126;-52
2023/09/25 12:45:42;;;;;;;5.32;1.40;;;20.60;99.70;;;;;;4934505;29;20377;-54
2023/09/25 12:48:08;;;;;;;2.33;1.90;;;20.60;99.40;;;;;;4934310;29;20046;-50
2023/09/25 12:50:34;;;;;;;1.65;1.40;;;20.70;99.40;;;;;;4933042;29;20047;-55
2023/09/25 12:52:59;;;;;;;3.00;1.88;;;20.80;99.20;;;;;;4934227;29;20436;-54